Rydal, Pennsylvania
Current Conditions -  °F | °C
As of 12:54 AM on Monday 26 Jan 2015 (Local Time) from KPNE Reporting Station
Light Snow Light Snow  
Wind Chill: 21°   Ceiling: 2800
Heat Index: 30°   Visibility: 4mi
Dew Point: 23°   Wind: 12mph
Humidity: 75%   Direction: 50°NE
Pressure: 29.98"   Gusts: NA
Location:  40.1039°N, 75.1072°W
Report Text: KPNE 260554Z AUTO 05010KT 4SM -SN FEW013 BKN028 OVC036 M01/M05 A2998 RMK AO2 SNB00 SLP153 P0000 60000 T10111050 10050 21011 50010 TSNO
Loading
Personal Weather Stations






























Interactive Weather Map New forecast layout! Learn more

10-Day Weather Forecast

Advertisements
Track Severe Weather on mobile